Airport View

Enter AWOS ICAO identifier for current METAR.

ex. KFNL

KILG 280251Z 17004KT 10SM OVC010 22/21 A2991 RMK AO2 SLP129 T02170206 53001 $

28 Sep 2020 03:28

Phone: 302-328-1536

Other Area AWOS: KOQN - KPHL - KMQS - KAPG

TAF AMD KILG 280256Z 2803/2824 VRB04KT P6SM VCSH OVC010 FM280500 VRB02KT 4SM BR OVC010 FM281100 17004KT P6SM OVC015 FM281600 17009KT P6SM BKN040